sensor_id;sensor_type;location;lat;lon;timestamp;P1;durP1;ratioP1;P2;durP2;ratioP2
75990;SDS011;64673;52.276;10.560;2023-06-24T00:00:58;12.02;;;6.97;;
75990;SDS011;64673;52.276;10.560;2023-06-24T00:03:24;13.98;;;7.85;;
75990;SDS011;64673;52.276;10.560;2023-06-24T00:05:49;13.80;;;7.32;;
75990;SDS011;64673;52.276;10.560;2023-06-24T00:08:15;13.07;;;7.50;;
75990;SDS011;64673;52.276;10.560;2023-06-24T00:10:44;15.95;;;7.93;;
75990;SDS011;64673;52.276;10.560;2023-06-24T00:13:12;16.33;;;9.35;;
75990;SDS011;64673;52.276;10.560;2023-06-24T00:15:39;16.00;;;8.15;;
75990;SDS011;64673;52.276;10.560;2023-06-24T00:18:10;12.73;;;7.25;;
75990;SDS011;64673;52.276;10.560;2023-06-24T00:20:36;15.13;;;7.90;;
75990;SDS011;64673;52.276;10.560;2023-06-24T00:23:01;13.05;;;7.68;;
75990;SDS011;64673;52.276;10.560;2023-06-24T00:25:27;14.57;;;7.53;;
75990;SDS011;64673;52.276;10.560;2023-06-24T00:27:53;10.93;;;6.50;;
75990;SDS011;64673;52.276;10.560;2023-06-24T00:30:18;10.25;;;6.95;;
75990;SDS011;64673;52.276;10.560;2023-06-24T00:32:44;14.07;;;6.88;;
75990;SDS011;64673;52.276;10.560;2023-06-24T00:35:09;12.88;;;7.57;;
75990;SDS011;64673;52.276;10.560;2023-06-24T00:40:02;17.00;;;7.50;;
75990;SDS011;64673;52.276;10.560;2023-06-24T00:42:28;15.85;;;8.02;;
75990;SDS011;64673;52.276;10.560;2023-06-24T00:44:54;14.30;;;7.32;;
75990;SDS011;64673;52.276;10.560;2023-06-24T00:47:19;17.27;;;8.30;;
75990;SDS011;64673;52.276;10.560;2023-06-24T00:49:45;11.63;;;6.80;;
75990;SDS011;64673;52.276;10.560;2023-06-24T00:52:11;13.45;;;7.25;;
75990;SDS011;64673;52.276;10.560;2023-06-24T00:54:40;13.57;;;7.53;;
75990;SDS011;64673;52.276;10.560;2023-06-24T00:57:06;13.98;;;7.63;;
75990;SDS011;64673;52.276;10.560;2023-06-24T00:59:32;13.57;;;7.05;;
75990;SDS011;64673;52.276;10.560;2023-06-24T01:01:57;15.88;;;7.20;;
75990;SDS011;64673;52.276;10.560;2023-06-24T01:04:26;14.18;;;7.93;;
75990;SDS011;64673;52.276;10.560;2023-06-24T01:06:52;13.43;;;7.38;;
75990;SDS011;64673;52.276;10.560;2023-06-24T01:09:18;14.05;;;7.22;;
75990;SDS011;64673;52.276;10.560;2023-06-24T01:11:43;13.15;;;7.30;;
75990;SDS011;64673;52.276;10.560;2023-06-24T01:14:08;13.27;;;7.03;;
75990;SDS011;64673;52.276;10.560;2023-06-24T01:24:51;11.25;;;6.43;;
75990;SDS011;64673;52.276;10.560;2023-06-24T01:30:17;14.82;;;7.03;;
75990;SDS011;64673;52.276;10.560;2023-06-24T01:33:07;13.82;;;6.63;;
75990;SDS011;64673;52.276;10.560;2023-06-24T01:35:35;12.85;;;6.95;;
75990;SDS011;64673;52.276;10.560;2023-06-24T01:38:07;12.60;;;6.90;;
75990;SDS011;64673;52.276;10.560;2023-06-24T01:40:40;13.65;;;6.85;;
75990;SDS011;64673;52.276;10.560;2023-06-24T01:43:09;15.80;;;8.32;;
75990;SDS011;64673;52.276;10.560;2023-06-24T01:45:37;14.23;;;7.10;;
75990;SDS011;64673;52.276;10.560;2023-06-24T01:48:16;15.57;;;7.97;;
75990;SDS011;64673;52.276;10.560;2023-06-24T01:51:00;14.68;;;7.50;;
75990;SDS011;64673;52.276;10.560;2023-06-24T01:53:29;19.30;;;8.02;;
75990;SDS011;64673;52.276;10.560;2023-06-24T01:55:59;16.95;;;8.10;;
75990;SDS011;64673;52.276;10.560;2023-06-24T01:58:26;14.18;;;6.97;;
75990;SDS011;64673;52.276;10.560;2023-06-24T02:00:54;13.93;;;7.53;;
75990;SDS011;64673;52.276;10.560;2023-06-24T02:03:21;15.18;;;8.43;;
75990;SDS011;64673;52.276;10.560;2023-06-24T02:05:47;15.95;;;7.60;;
75990;SDS011;64673;52.276;10.560;2023-06-24T02:08:13;15.43;;;8.23;;
75990;SDS011;64673;52.276;10.560;2023-06-24T02:10:41;14.10;;;7.38;;
75990;SDS011;64673;52.276;10.560;2023-06-24T02:13:08;15.15;;;7.60;;
75990;SDS011;64673;52.276;10.560;2023-06-24T02:15:35;18.65;;;8.32;;
75990;SDS011;64673;52.276;10.560;2023-06-24T02:18:03;15.70;;;8.32;;
75990;SDS011;64673;52.276;10.560;2023-06-24T02:22:56;21.60;;;9.15;;
75990;SDS011;64673;52.276;10.560;2023-06-24T02:27:50;26.85;;;12.13;;
75990;SDS011;64673;52.276;10.560;2023-06-24T02:30:16;27.70;;;11.70;;
75990;SDS011;64673;52.276;10.560;2023-06-24T02:32:42;22.92;;;10.80;;
75990;SDS011;64673;52.276;10.560;2023-06-24T02:35:07;18.70;;;9.40;;
75990;SDS011;64673;52.276;10.560;2023-06-24T02:37:33;17.20;;;8.45;;
75990;SDS011;64673;52.276;10.560;2023-06-24T02:39:59;16.95;;;8.25;;
75990;SDS011;64673;52.276;10.560;2023-06-24T02:42:25;16.55;;;8.48;;
75990;SDS011;64673;52.276;10.560;2023-06-24T02:44:50;17.45;;;8.43;;
75990;SDS011;64673;52.276;10.560;2023-06-24T02:47:16;16.83;;;8.18;;
75990;SDS011;64673;52.276;10.560;2023-06-24T02:49:44;16.50;;;8.38;;
75990;SDS011;64673;52.276;10.560;2023-06-24T02:52:11;21.80;;;9.23;;
75990;SDS011;64673;52.276;10.560;2023-06-24T02:54:37;17.52;;;8.13;;
75990;SDS011;64673;52.276;10.560;2023-06-24T02:59:30;20.20;;;9.10;;
75990;SDS011;64673;52.276;10.560;2023-06-24T03:01:55;19.98;;;9.77;;
75990;SDS011;64673;52.276;10.560;2023-06-24T03:04:21;24.38;;;10.95;;
75990;SDS011;64673;52.276;10.560;2023-06-24T03:06:47;24.23;;;10.02;;
75990;SDS011;64673;52.276;10.560;2023-06-24T03:09:14;19.52;;;10.02;;
75990;SDS011;64673;52.276;10.560;2023-06-24T03:11:44;19.85;;;9.27;;
75990;SDS011;64673;52.276;10.560;2023-06-24T03:14:10;18.35;;;8.77;;
75990;SDS011;64673;52.276;10.560;2023-06-24T03:16:36;17.45;;;8.55;;
75990;SDS011;64673;52.276;10.560;2023-06-24T03:19:03;17.20;;;8.32;;
75990;SDS011;64673;52.276;10.560;2023-06-24T03:21:29;15.05;;;8.45;;
75990;SDS011;64673;52.276;10.560;2023-06-24T03:23:54;17.60;;;8.50;;
75990;SDS011;64673;52.276;10.560;2023-06-24T03:26:20;18.35;;;8.82;;
75990;SDS011;64673;52.276;10.560;2023-06-24T03:28:45;15.98;;;8.30;;
75990;SDS011;64673;52.276;10.560;2023-06-24T03:31:11;17.15;;;8.82;;
75990;SDS011;64673;52.276;10.560;2023-06-24T03:33:36;19.00;;;9.57;;
75990;SDS011;64673;52.276;10.560;2023-06-24T03:36:02;20.38;;;9.27;;
75990;SDS011;64673;52.276;10.560;2023-06-24T03:38:28;20.02;;;9.60;;
75990;SDS011;64673;52.276;10.560;2023-06-24T03:40:53;20.67;;;9.65;;
75990;SDS011;64673;52.276;10.560;2023-06-24T03:43:19;16.58;;;8.18;;
75990;SDS011;64673;52.276;10.560;2023-06-24T03:45:45;17.33;;;8.50;;
75990;SDS011;64673;52.276;10.560;2023-06-24T03:48:11;19.25;;;9.52;;
75990;SDS011;64673;52.276;10.560;2023-06-24T03:50:36;19.08;;;8.35;;
75990;SDS011;64673;52.276;10.560;2023-06-24T03:53:02;17.70;;;9.50;;
75990;SDS011;64673;52.276;10.560;2023-06-24T03:55:29;16.50;;;8.45;;
75990;SDS011;64673;52.276;10.560;2023-06-24T03:57:54;19.63;;;9.73;;
75990;SDS011;64673;52.276;10.560;2023-06-24T04:00:19;21.05;;;9.15;;
75990;SDS011;64673;52.276;10.560;2023-06-24T04:02:46;18.05;;;8.27;;
75990;SDS011;64673;52.276;10.560;2023-06-24T04:05:11;18.27;;;8.13;;
75990;SDS011;64673;52.276;10.560;2023-06-24T04:07:37;16.42;;;7.60;;
75990;SDS011;64673;52.276;10.560;2023-06-24T04:10:03;16.77;;;7.43;;
75990;SDS011;64673;52.276;10.560;2023-06-24T04:12:33;18.52;;;8.38;;
75990;SDS011;64673;52.276;10.560;2023-06-24T04:14:58;23.08;;;10.02;;
75990;SDS011;64673;52.276;10.560;2023-06-24T04:17:24;20.10;;;9.65;;
75990;SDS011;64673;52.276;10.560;2023-06-24T04:19:49;17.90;;;8.27;;
75990;SDS011;64673;52.276;10.560;2023-06-24T04:22:14;16.17;;;8.20;;
75990;SDS011;64673;52.276;10.560;2023-06-24T04:24:40;17.05;;;8.32;;
75990;SDS011;64673;52.276;10.560;2023-06-24T04:27:07;18.83;;;9.30;;
75990;SDS011;64673;52.276;10.560;2023-06-24T04:29:33;17.23;;;8.65;;
75990;SDS011;64673;52.276;10.560;2023-06-24T04:31:59;20.63;;;9.48;;
75990;SDS011;64673;52.276;10.560;2023-06-24T04:34:25;19.85;;;9.20;;
75990;SDS011;64673;52.276;10.560;2023-06-24T04:36:50;17.17;;;8.63;;
75990;SDS011;64673;52.276;10.560;2023-06-24T04:39:15;18.45;;;8.82;;
75990;SDS011;64673;52.276;10.560;2023-06-24T04:41:41;19.20;;;8.80;;
75990;SDS011;64673;52.276;10.560;2023-06-24T04:44:06;16.50;;;8.18;;
75990;SDS011;64673;52.276;10.560;2023-06-24T04:46:31;16.00;;;8.15;;
75990;SDS011;64673;52.276;10.560;2023-06-24T04:48:58;17.33;;;8.70;;
75990;SDS011;64673;52.276;10.560;2023-06-24T04:51:23;14.95;;;7.72;;
75990;SDS011;64673;52.276;10.560;2023-06-24T04:53:49;12.82;;;7.30;;
75990;SDS011;64673;52.276;10.560;2023-06-24T04:56:14;13.98;;;7.00;;
75990;SDS011;64673;52.276;10.560;2023-06-24T04:58:39;14.65;;;7.68;;
75990;SDS011;64673;52.276;10.560;2023-06-24T05:01:05;12.43;;;6.35;;
75990;SDS011;64673;52.276;10.560;2023-06-24T05:03:30;12.18;;;6.18;;
75990;SDS011;64673;52.276;10.560;2023-06-24T05:05:55;10.88;;;5.63;;
75990;SDS011;64673;52.276;10.560;2023-06-24T05:08:21;11.77;;;6.00;;
75990;SDS011;64673;52.276;10.560;2023-06-24T05:10:46;11.13;;;6.45;;
75990;SDS011;64673;52.276;10.560;2023-06-24T05:13:11;11.35;;;6.20;;
75990;SDS011;64673;52.276;10.560;2023-06-24T05:15:37;10.38;;;5.60;;
75990;SDS011;64673;52.276;10.560;2023-06-24T05:18:02;10.07;;;5.93;;
75990;SDS011;64673;52.276;10.560;2023-06-24T05:20:27;12.35;;;5.70;;
75990;SDS011;64673;52.276;10.560;2023-06-24T05:22:53;10.68;;;5.57;;
75990;SDS011;64673;52.276;10.560;2023-06-24T05:25:20;13.38;;;6.15;;
75990;SDS011;64673;52.276;10.560;2023-06-24T05:27:45;13.32;;;6.25;;
75990;SDS011;64673;52.276;10.560;2023-06-24T05:30:10;10.10;;;5.97;;
75990;SDS011;64673;52.276;10.560;2023-06-24T05:32:37;13.65;;;6.22;;
75990;SDS011;64673;52.276;10.560;2023-06-24T05:35:03;14.93;;;5.95;;
75990;SDS011;64673;52.276;10.560;2023-06-24T05:37:29;10.95;;;5.85;;
75990;SDS011;64673;52.276;10.560;2023-06-24T05:39:54;15.68;;;6.10;;
75990;SDS011;64673;52.276;10.560;2023-06-24T05:42:21;11.18;;;6.13;;
75990;SDS011;64673;52.276;10.560;2023-06-24T05:44:48;11.55;;;5.80;;
75990;SDS011;64673;52.276;10.560;2023-06-24T05:47:13;13.75;;;6.00;;
75990;SDS011;64673;52.276;10.560;2023-06-24T05:49:39;12.70;;;5.93;;
75990;SDS011;64673;52.276;10.560;2023-06-24T05:52:04;12.45;;;6.22;;
75990;SDS011;64673;52.276;10.560;2023-06-24T05:54:30;12.32;;;6.45;;
75990;SDS011;64673;52.276;10.560;2023-06-24T05:56:55;10.75;;;6.13;;
75990;SDS011;64673;52.276;10.560;2023-06-24T05:59:21;13.73;;;6.60;;
75990;SDS011;64673;52.276;10.560;2023-06-24T06:01:46;12.77;;;6.40;;
75990;SDS011;64673;52.276;10.560;2023-06-24T06:04:12;14.05;;;6.60;;
75990;SDS011;64673;52.276;10.560;2023-06-24T06:06:37;12.70;;;6.57;;
75990;SDS011;64673;52.276;10.560;2023-06-24T06:09:02;12.43;;;6.45;;
75990;SDS011;64673;52.276;10.560;2023-06-24T06:11:28;9.77;;;6.32;;
75990;SDS011;64673;52.276;10.560;2023-06-24T06:13:53;11.35;;;6.22;;
75990;SDS011;64673;52.276;10.560;2023-06-24T06:16:19;15.43;;;6.85;;
75990;SDS011;64673;52.276;10.560;2023-06-24T06:18:44;11.60;;;5.75;;
75990;SDS011;64673;52.276;10.560;2023-06-24T06:21:10;12.15;;;6.50;;
75990;SDS011;64673;52.276;10.560;2023-06-24T06:23:35;12.40;;;6.38;;
75990;SDS011;64673;52.276;10.560;2023-06-24T06:26:00;13.38;;;6.13;;
75990;SDS011;64673;52.276;10.560;2023-06-24T06:28:26;11.18;;;6.25;;
75990;SDS011;64673;52.276;10.560;2023-06-24T06:30:51;11.35;;;6.53;;
75990;SDS011;64673;52.276;10.560;2023-06-24T06:33:16;15.23;;;6.25;;
75990;SDS011;64673;52.276;10.560;2023-06-24T06:35:42;11.80;;;6.00;;
75990;SDS011;64673;52.276;10.560;2023-06-24T06:38:07;11.27;;;6.35;;
75990;SDS011;64673;52.276;10.560;2023-06-24T06:40:32;14.57;;;6.63;;
75990;SDS011;64673;52.276;10.560;2023-06-24T06:42:58;11.13;;;6.22;;
75990;SDS011;64673;52.276;10.560;2023-06-24T06:45:23;11.70;;;6.57;;
75990;SDS011;64673;52.276;10.560;2023-06-24T06:47:49;14.68;;;6.85;;
75990;SDS011;64673;52.276;10.560;2023-06-24T06:50:15;11.52;;;6.05;;
75990;SDS011;64673;52.276;10.560;2023-06-24T06:52:40;10.82;;;5.95;;
75990;SDS011;64673;52.276;10.560;2023-06-24T06:55:06;10.18;;;5.30;;
75990;SDS011;64673;52.276;10.560;2023-06-24T06:57:31;7.53;;;5.22;;
75990;SDS011;64673;52.276;10.560;2023-06-24T06:59:57;10.38;;;5.70;;
75990;SDS011;64673;52.276;10.560;2023-06-24T07:02:22;11.20;;;5.43;;
75990;SDS011;64673;52.276;10.560;2023-06-24T07:04:47;8.95;;;4.93;;
75990;SDS011;64673;52.276;10.560;2023-06-24T07:07:13;7.90;;;4.50;;
75990;SDS011;64673;52.276;10.560;2023-06-24T07:09:39;10.02;;;5.40;;
75990;SDS011;64673;52.276;10.560;2023-06-24T07:12:05;10.88;;;5.47;;
75990;SDS011;64673;52.276;10.560;2023-06-24T07:16:56;7.83;;;4.73;;
75990;SDS011;64673;52.276;10.560;2023-06-24T07:19:22;7.93;;;4.82;;
75990;SDS011;64673;52.276;10.560;2023-06-24T07:21:47;8.73;;;4.90;;
75990;SDS011;64673;52.276;10.560;2023-06-24T07:24:12;8.05;;;4.65;;
75990;SDS011;64673;52.276;10.560;2023-06-24T07:26:38;9.45;;;5.13;;
75990;SDS011;64673;52.276;10.560;2023-06-24T07:29:05;8.85;;;4.90;;
75990;SDS011;64673;52.276;10.560;2023-06-24T07:31:31;8.85;;;5.78;;
75990;SDS011;64673;52.276;10.560;2023-06-24T07:33:56;8.02;;;4.57;;
75990;SDS011;64673;52.276;10.560;2023-06-24T07:36:22;9.70;;;4.50;;
75990;SDS011;64673;52.276;10.560;2023-06-24T07:38:47;7.80;;;4.68;;
75990;SDS011;64673;52.276;10.560;2023-06-24T07:41:12;10.30;;;4.90;;
75990;SDS011;64673;52.276;10.560;2023-06-24T07:43:38;9.20;;;4.70;;
75990;SDS011;64673;52.276;10.560;2023-06-24T07:46:04;6.20;;;4.20;;
75990;SDS011;64673;52.276;10.560;2023-06-24T07:48:29;10.50;;;5.03;;
75990;SDS011;64673;52.276;10.560;2023-06-24T07:50:54;11.90;;;5.45;;
75990;SDS011;64673;52.276;10.560;2023-06-24T07:53:20;9.07;;;5.28;;
75990;SDS011;64673;52.276;10.560;2023-06-24T07:55:45;7.50;;;5.03;;
75990;SDS011;64673;52.276;10.560;2023-06-24T07:58:11;8.35;;;4.75;;
75990;SDS011;64673;52.276;10.560;2023-06-24T08:00:36;7.63;;;4.78;;
75990;SDS011;64673;52.276;10.560;2023-06-24T08:03:01;9.43;;;4.70;;
75990;SDS011;64673;52.276;10.560;2023-06-24T08:05:27;7.50;;;4.72;;
75990;SDS011;64673;52.276;10.560;2023-06-24T08:07:52;9.77;;;5.03;;
75990;SDS011;64673;52.276;10.560;2023-06-24T08:10:18;7.75;;;4.35;;
75990;SDS011;64673;52.276;10.560;2023-06-24T08:12:43;6.00;;;4.22;;
75990;SDS011;64673;52.276;10.560;2023-06-24T08:15:09;7.80;;;5.00;;
75990;SDS011;64673;52.276;10.560;2023-06-24T08:17:35;7.70;;;4.78;;
75990;SDS011;64673;52.276;10.560;2023-06-24T08:20:03;11.93;;;4.60;;
75990;SDS011;64673;52.276;10.560;2023-06-24T08:22:29;6.07;;;4.15;;
75990;SDS011;64673;52.276;10.560;2023-06-24T08:24:55;7.30;;;4.10;;
75990;SDS011;64673;52.276;10.560;2023-06-24T08:27:20;5.65;;;3.60;;
75990;SDS011;64673;52.276;10.560;2023-06-24T08:29:46;7.10;;;4.10;;
75990;SDS011;64673;52.276;10.560;2023-06-24T08:32:11;10.60;;;4.63;;
75990;SDS011;64673;52.276;10.560;2023-06-24T08:34:36;7.32;;;4.13;;
75990;SDS011;64673;52.276;10.560;2023-06-24T08:37:02;6.65;;;3.47;;
75990;SDS011;64673;52.276;10.560;2023-06-24T08:39:27;6.32;;;4.10;;
75990;SDS011;64673;52.276;10.560;2023-06-24T08:41:53;6.75;;;3.97;;
75990;SDS011;64673;52.276;10.560;2023-06-24T08:44:18;7.00;;;4.13;;
75990;SDS011;64673;52.276;10.560;2023-06-24T08:46:44;6.72;;;4.05;;
75990;SDS011;64673;52.276;10.560;2023-06-24T08:51:39;6.03;;;3.47;;
75990;SDS011;64673;52.276;10.560;2023-06-24T08:54:06;6.28;;;3.22;;
75990;SDS011;64673;52.276;10.560;2023-06-24T08:56:35;6.70;;;3.60;;
75990;SDS011;64673;52.276;10.560;2023-06-24T08:59:03;6.80;;;3.97;;
75990;SDS011;64673;52.276;10.560;2023-06-24T09:01:30;6.72;;;3.30;;
75990;SDS011;64673;52.276;10.560;2023-06-24T09:03:56;5.53;;;3.50;;
75990;SDS011;64673;52.276;10.560;2023-06-24T09:06:21;7.65;;;3.50;;
75990;SDS011;64673;52.276;10.560;2023-06-24T09:08:56;6.55;;;3.42;;
75990;SDS011;64673;52.276;10.560;2023-06-24T09:11:23;6.63;;;3.72;;
75990;SDS011;64673;52.276;10.560;2023-06-24T09:13:53;6.82;;;3.53;;
75990;SDS011;64673;52.276;10.560;2023-06-24T09:16:20;7.05;;;3.78;;
75990;SDS011;64673;52.276;10.560;2023-06-24T09:18:49;5.57;;;3.03;;
75990;SDS011;64673;52.276;10.560;2023-06-24T09:21:27;5.82;;;3.47;;
75990;SDS011;64673;52.276;10.560;2023-06-24T09:23:56;5.95;;;3.30;;
75990;SDS011;64673;52.276;10.560;2023-06-24T09:28:51;6.15;;;3.28;;
75990;SDS011;64673;52.276;10.560;2023-06-24T09:31:16;6.63;;;3.17;;
75990;SDS011;64673;52.276;10.560;2023-06-24T09:33:42;5.03;;;3.50;;
75990;SDS011;64673;52.276;10.560;2023-06-24T09:36:11;4.90;;;3.30;;
75990;SDS011;64673;52.276;10.560;2023-06-24T09:38:37;5.43;;;3.35;;
75990;SDS011;64673;52.276;10.560;2023-06-24T09:41:04;5.05;;;3.20;;
75990;SDS011;64673;52.276;10.560;2023-06-24T09:43:33;5.82;;;3.10;;
75990;SDS011;64673;52.276;10.560;2023-06-24T09:46:01;5.78;;;2.70;;
75990;SDS011;64673;52.276;10.560;2023-06-24T09:48:27;5.72;;;2.78;;
75990;SDS011;64673;52.276;10.560;2023-06-24T09:50:53;3.72;;;2.75;;
75990;SDS011;64673;52.276;10.560;2023-06-24T09:53:23;5.38;;;3.42;;
75990;SDS011;64673;52.276;10.560;2023-06-24T09:55:50;5.53;;;2.80;;
75990;SDS011;64673;52.276;10.560;2023-06-24T09:58:16;5.45;;;2.90;;
75990;SDS011;64673;52.276;10.560;2023-06-24T10:00:43;3.95;;;2.70;;
75990;SDS011;64673;52.276;10.560;2023-06-24T10:03:09;5.28;;;2.85;;
75990;SDS011;64673;52.276;10.560;2023-06-24T10:05:35;4.75;;;2.85;;
75990;SDS011;64673;52.276;10.560;2023-06-24T10:08:01;3.78;;;2.60;;
75990;SDS011;64673;52.276;10.560;2023-06-24T10:10:29;5.32;;;2.63;;
75990;SDS011;64673;52.276;10.560;2023-06-24T10:12:55;4.72;;;2.38;;
75990;SDS011;64673;52.276;10.560;2023-06-24T10:15:21;4.18;;;2.83;;
75990;SDS011;64673;52.276;10.560;2023-06-24T10:17:47;5.07;;;3.13;;
75990;SDS011;64673;52.276;10.560;2023-06-24T10:20:12;4.38;;;2.72;;
75990;SDS011;64673;52.276;10.560;2023-06-24T10:22:38;4.70;;;3.08;;
75990;SDS011;64673;52.276;10.560;2023-06-24T10:25:06;5.22;;;3.10;;
75990;SDS011;64673;52.276;10.560;2023-06-24T10:27:40;5.13;;;3.20;;
75990;SDS011;64673;52.276;10.560;2023-06-24T10:30:07;4.65;;;2.85;;
75990;SDS011;64673;52.276;10.560;2023-06-24T10:32:40;5.63;;;3.28;;
75990;SDS011;64673;52.276;10.560;2023-06-24T10:35:07;4.70;;;3.15;;
75990;SDS011;64673;52.276;10.560;2023-06-24T10:37:53;5.35;;;3.10;;
75990;SDS011;64673;52.276;10.560;2023-06-24T10:40:33;6.55;;;3.30;;
75990;SDS011;64673;52.276;10.560;2023-06-24T10:43:01;6.60;;;3.20;;
75990;SDS011;64673;52.276;10.560;2023-06-24T10:45:26;6.88;;;3.08;;
75990;SDS011;64673;52.276;10.560;2023-06-24T10:47:51;5.10;;;3.22;;
75990;SDS011;64673;52.276;10.560;2023-06-24T10:52:50;3.93;;;2.70;;
75990;SDS011;64673;52.276;10.560;2023-06-24T10:55:21;4.78;;;2.67;;
75990;SDS011;64673;52.276;10.560;2023-06-24T10:57:49;4.97;;;2.80;;
75990;SDS011;64673;52.276;10.560;2023-06-24T11:00:14;6.13;;;3.20;;
75990;SDS011;64673;52.276;10.560;2023-06-24T11:02:40;5.40;;;3.05;;
75990;SDS011;64673;52.276;10.560;2023-06-24T11:05:06;5.38;;;3.10;;
75990;SDS011;64673;52.276;10.560;2023-06-24T11:07:32;3.80;;;3.00;;
75990;SDS011;64673;52.276;10.560;2023-06-24T11:12:32;5.25;;;2.92;;
75990;SDS011;64673;52.276;10.560;2023-06-24T11:15:00;4.20;;;2.67;;
75990;SDS011;64673;52.276;10.560;2023-06-24T11:17:28;4.25;;;2.75;;
75990;SDS011;64673;52.276;10.560;2023-06-24T11:19:53;4.10;;;2.35;;
75990;SDS011;64673;52.276;10.560;2023-06-24T11:22:19;5.20;;;2.78;;
75990;SDS011;64673;52.276;10.560;2023-06-24T11:24:46;6.20;;;3.38;;
75990;SDS011;64673;52.276;10.560;2023-06-24T11:27:11;5.25;;;2.97;;
75990;SDS011;64673;52.276;10.560;2023-06-24T11:29:37;4.63;;;3.03;;
75990;SDS011;64673;52.276;10.560;2023-06-24T11:32:03;7.65;;;3.20;;
75990;SDS011;64673;52.276;10.560;2023-06-24T11:34:32;6.43;;;2.88;;
75990;SDS011;64673;52.276;10.560;2023-06-24T11:36:57;5.32;;;3.30;;
75990;SDS011;64673;52.276;10.560;2023-06-24T11:39:29;3.67;;;2.63;;
75990;SDS011;64673;52.276;10.560;2023-06-24T11:41:57;4.55;;;2.90;;
75990;SDS011;64673;52.276;10.560;2023-06-24T11:44:25;6.10;;;2.97;;
75990;SDS011;64673;52.276;10.560;2023-06-24T11:46:51;4.75;;;2.97;;
75990;SDS011;64673;52.276;10.560;2023-06-24T11:49:17;4.07;;;2.90;;
75990;SDS011;64673;52.276;10.560;2023-06-24T11:51:49;4.13;;;3.05;;
75990;SDS011;64673;52.276;10.560;2023-06-24T11:54:19;4.20;;;2.92;;
75990;SDS011;64673;52.276;10.560;2023-06-24T11:56:49;4.68;;;2.90;;
75990;SDS011;64673;52.276;10.560;2023-06-24T11:59:22;5.32;;;2.88;;
75990;SDS011;64673;52.276;10.560;2023-06-24T12:01:57;3.80;;;3.00;;
75990;SDS011;64673;52.276;10.560;2023-06-24T12:04:30;5.13;;;3.17;;
75990;SDS011;64673;52.276;10.560;2023-06-24T12:06:56;5.43;;;3.42;;
75990;SDS011;64673;52.276;10.560;2023-06-24T12:09:22;5.15;;;3.00;;
75990;SDS011;64673;52.276;10.560;2023-06-24T12:11:48;4.05;;;2.92;;
75990;SDS011;64673;52.276;10.560;2023-06-24T12:14:13;5.60;;;3.25;;
75990;SDS011;64673;52.276;10.560;2023-06-24T12:16:39;4.03;;;2.85;;
75990;SDS011;64673;52.276;10.560;2023-06-24T12:19:05;4.55;;;2.92;;
75990;SDS011;64673;52.276;10.560;2023-06-24T12:21:31;4.57;;;3.10;;
75990;SDS011;64673;52.276;10.560;2023-06-24T12:23:56;5.47;;;3.22;;
75990;SDS011;64673;52.276;10.560;2023-06-24T12:26:22;5.38;;;3.17;;
75990;SDS011;64673;52.276;10.560;2023-06-24T12:28:47;5.75;;;3.20;;
75990;SDS011;64673;52.276;10.560;2023-06-24T12:31:13;5.28;;;3.60;;
75990;SDS011;64673;52.276;10.560;2023-06-24T12:33:38;4.13;;;2.50;;
75990;SDS011;64673;52.276;10.560;2023-06-24T12:36:03;5.95;;;3.05;;
75990;SDS011;64673;52.276;10.560;2023-06-24T12:38:29;5.80;;;3.00;;
75990;SDS011;64673;52.276;10.560;2023-06-24T12:40:55;5.65;;;3.47;;
75990;SDS011;64673;52.276;10.560;2023-06-24T12:43:21;5.45;;;3.25;;
75990;SDS011;64673;52.276;10.560;2023-06-24T12:45:46;5.72;;;3.65;;
75990;SDS011;64673;52.276;10.560;2023-06-24T12:48:12;5.22;;;3.08;;
75990;SDS011;64673;52.276;10.560;2023-06-24T12:50:38;5.13;;;2.95;;
75990;SDS011;64673;52.276;10.560;2023-06-24T12:53:03;4.28;;;3.00;;
75990;SDS011;64673;52.276;10.560;2023-06-24T12:55:29;4.90;;;3.13;;
75990;SDS011;64673;52.276;10.560;2023-06-24T12:57:55;10.10;;;4.13;;
75990;SDS011;64673;52.276;10.560;2023-06-24T13:00:20;5.40;;;3.63;;
75990;SDS011;64673;52.276;10.560;2023-06-24T13:02:46;5.15;;;3.33;;
75990;SDS011;64673;52.276;10.560;2023-06-24T13:05:12;5.60;;;3.40;;
75990;SDS011;64673;52.276;10.560;2023-06-24T13:07:38;6.28;;;3.70;;
75990;SDS011;64673;52.276;10.560;2023-06-24T13:10:03;6.40;;;3.00;;
75990;SDS011;64673;52.276;10.560;2023-06-24T13:12:31;4.05;;;2.70;;
75990;SDS011;64673;52.276;10.560;2023-06-24T13:15:00;3.95;;;2.72;;
75990;SDS011;64673;52.276;10.560;2023-06-24T13:17:25;4.30;;;2.72;;
75990;SDS011;64673;52.276;10.560;2023-06-24T13:19:51;5.75;;;2.75;;
75990;SDS011;64673;52.276;10.560;2023-06-24T13:22:17;4.40;;;2.65;;
75990;SDS011;64673;52.276;10.560;2023-06-24T13:24:43;6.13;;;2.80;;
75990;SDS011;64673;52.276;10.560;2023-06-24T13:27:09;4.05;;;3.05;;
75990;SDS011;64673;52.276;10.560;2023-06-24T13:29:35;4.35;;;3.17;;
75990;SDS011;64673;52.276;10.560;2023-06-24T13:32:00;4.75;;;2.70;;
75990;SDS011;64673;52.276;10.560;2023-06-24T13:34:25;5.22;;;3.05;;
75990;SDS011;64673;52.276;10.560;2023-06-24T13:36:51;5.18;;;2.90;;
75990;SDS011;64673;52.276;10.560;2023-06-24T13:39:16;4.57;;;2.80;;
75990;SDS011;64673;52.276;10.560;2023-06-24T13:41:47;4.28;;;2.80;;
75990;SDS011;64673;52.276;10.560;2023-06-24T13:44:13;6.40;;;3.05;;
75990;SDS011;64673;52.276;10.560;2023-06-24T13:46:38;3.58;;;2.50;;
75990;SDS011;64673;52.276;10.560;2023-06-24T13:49:04;4.93;;;3.13;;
75990;SDS011;64673;52.276;10.560;2023-06-24T13:51:30;5.10;;;3.15;;
75990;SDS011;64673;52.276;10.560;2023-06-24T13:53:55;4.05;;;2.90;;
75990;SDS011;64673;52.276;10.560;2023-06-24T13:56:22;5.18;;;3.03;;
75990;SDS011;64673;52.276;10.560;2023-06-24T13:58:51;4.18;;;3.22;;
75990;SDS011;64673;52.276;10.560;2023-06-24T14:01:18;4.60;;;3.15;;
75990;SDS011;64673;52.276;10.560;2023-06-24T14:03:43;5.78;;;3.50;;
75990;SDS011;64673;52.276;10.560;2023-06-24T14:06:10;3.42;;;2.65;;
75990;SDS011;64673;52.276;10.560;2023-06-24T14:08:35;7.00;;;3.00;;
75990;SDS011;64673;52.276;10.560;2023-06-24T14:11:01;3.50;;;2.83;;
75990;SDS011;64673;52.276;10.560;2023-06-24T14:13:27;4.28;;;2.67;;
75990;SDS011;64673;52.276;10.560;2023-06-24T14:15:53;3.40;;;2.70;;
75990;SDS011;64673;52.276;10.560;2023-06-24T14:18:19;3.78;;;2.70;;
75990;SDS011;64673;52.276;10.560;2023-06-24T14:20:45;5.00;;;2.67;;
75990;SDS011;64673;52.276;10.560;2023-06-24T14:23:10;5.95;;;2.90;;
75990;SDS011;64673;52.276;10.560;2023-06-24T14:25:36;4.00;;;2.92;;
75990;SDS011;64673;52.276;10.560;2023-06-24T14:28:03;4.00;;;2.42;;
75990;SDS011;64673;52.276;10.560;2023-06-24T14:30:31;4.47;;;2.67;;
75990;SDS011;64673;52.276;10.560;2023-06-24T14:32:57;4.20;;;2.65;;
75990;SDS011;64673;52.276;10.560;2023-06-24T14:35:23;3.65;;;2.60;;
75990;SDS011;64673;52.276;10.560;2023-06-24T14:37:48;5.20;;;3.08;;
75990;SDS011;64673;52.276;10.560;2023-06-24T14:40:13;3.55;;;2.53;;
75990;SDS011;64673;52.276;10.560;2023-06-24T14:42:39;6.72;;;2.80;;
75990;SDS011;64673;52.276;10.560;2023-06-24T14:45:04;3.92;;;2.60;;
75990;SDS011;64673;52.276;10.560;2023-06-24T14:47:30;4.15;;;2.75;;
75990;SDS011;64673;52.276;10.560;2023-06-24T14:49:56;3.45;;;2.60;;
75990;SDS011;64673;52.276;10.560;2023-06-24T14:52:21;3.65;;;2.70;;
75990;SDS011;64673;52.276;10.560;2023-06-24T14:54:47;5.72;;;2.70;;
75990;SDS011;64673;52.276;10.560;2023-06-24T14:57:12;4.68;;;2.58;;